<?xml version="1.0" encoding="utf-8"?>
<gpx xmlns:xsi="http://www.w3.org/2001/XMLSchema-instance" xmlns:xsd="http://www.w3.org/2001/XMLSchema" version="1.1" creator="Shapelink.com" xmlns="http://www.topografix.com/GPX/1/1" xmlns:gpxtpx="http://www.garmin.com/xmlschemas/TrackPointExtension/v1">
  <metadata>
    <name>Simning 2.26 km, 2018-06-12</name>
    <desc></desc>
    <author><name>Stefan Östlund</name></author> 
    <time>2018-06-12T18:11:03Z</time>
  </metadata>
  <trk>
    <name>Simning 2.26 km, 2018-06-12</name>
    <trkseg>
      <trkpt lat="59.97627306052" lon="15.786175584758">
        <ele>0</ele>
        <time>2018-06-12T18:12:18Z</time>
      </trkpt>
      <trkpt lat="59.9764591387" lon="15.786210285824">
        <ele>0</ele>
        <time>2018-06-12T18:13:14Z</time>
      </trkpt>
      <trkpt lat="59.976895248957" lon="15.785992943157">
        <ele>0</ele>
        <time>2018-06-12T18:14:11Z</time>
      </trkpt>
      <trkpt lat="59.977223987075" lon="15.785785574951">
        <ele>0</ele>
        <time>2018-06-12T18:15:44Z</time>
      </trkpt>
      <trkpt lat="59.97784718134" lon="15.78567250312">
        <ele>0</ele>
        <time>2018-06-12T18:16:45Z</time>
      </trkpt>
      <trkpt lat="59.978201819529" lon="15.785635958036">
        <ele>0</ele>
        <time>2018-06-12T18:17:29Z</time>
      </trkpt>
      <trkpt lat="59.978469621234" lon="15.786340708188">
        <ele>0</ele>
        <time>2018-06-12T18:18:25Z</time>
      </trkpt>
      <trkpt lat="59.978079276151" lon="15.785559850384">
        <ele>0</ele>
        <time>2018-06-12T18:21:28Z</time>
      </trkpt>
      <trkpt lat="59.977763949073" lon="15.784697604331">
        <ele>0</ele>
        <time>2018-06-12T18:22:19Z</time>
      </trkpt>
      <trkpt lat="59.97753369828" lon="15.784205167706">
        <ele>0</ele>
        <time>2018-06-12T18:23:28Z</time>
      </trkpt>
      <trkpt lat="59.977080069852" lon="15.783254408789">
        <ele>0</ele>
        <time>2018-06-12T18:24:55Z</time>
      </trkpt>
      <trkpt lat="59.976699531592" lon="15.782696760982">
        <ele>0</ele>
        <time>2018-06-12T18:25:58Z</time>
      </trkpt>
      <trkpt lat="59.976578664594" lon="15.782358802774">
        <ele>0</ele>
        <time>2018-06-12T18:26:45Z</time>
        <extensions><gpxtpx:TrackPointExtension><gpxtpx:hr>128</gpxtpx:hr></gpxtpx:TrackPointExtension></extensions>
      </trkpt>
      <trkpt lat="59.976561900794" lon="15.782346900476">
        <ele>0</ele>
        <time>2018-06-12T18:26:46Z</time>
        <extensions><gpxtpx:TrackPointExtension><gpxtpx:hr>127</gpxtpx:hr></gpxtpx:TrackPointExtension></extensions>
      </trkpt>
      <trkpt lat="59.976053538559" lon="15.782342709526">
        <ele>0</ele>
        <time>2018-06-12T18:29:43Z</time>
      </trkpt>
      <trkpt lat="59.975655146852" lon="15.782497271762">
        <ele>0</ele>
        <time>2018-06-12T18:30:37Z</time>
      </trkpt>
      <trkpt lat="59.975235548938" lon="15.781971978089">
        <ele>0</ele>
        <time>2018-06-12T18:31:38Z</time>
      </trkpt>
      <trkpt lat="59.974814442282" lon="15.781876089153">
        <ele>0</ele>
        <time>2018-06-12T18:32:43Z</time>
      </trkpt>
      <trkpt lat="59.975167823186" lon="15.782395766953">
        <ele>0</ele>
        <time>2018-06-12T18:36:49Z</time>
      </trkpt>
      <trkpt lat="59.975187101556" lon="15.783011920422">
        <ele>0</ele>
        <time>2018-06-12T18:37:48Z</time>
      </trkpt>
      <trkpt lat="59.975493962915" lon="15.78359463011">
        <ele>0</ele>
        <time>2018-06-12T18:38:55Z</time>
      </trkpt>
      <trkpt lat="59.975798225885" lon="15.784528792865">
        <ele>0</ele>
        <time>2018-06-12T18:40:05Z</time>
      </trkpt>
      <trkpt lat="59.975831669666" lon="15.785207391489">
        <ele>0</ele>
        <time>2018-06-12T18:41:17Z</time>
      </trkpt>
      <trkpt lat="59.976014311267" lon="15.785893282366">
        <ele>0</ele>
        <time>2018-06-12T18:42:36Z</time>
      </trkpt>
      <trkpt lat="59.976300972247" lon="15.786408182483">
        <ele>0</ele>
        <time>2018-06-12T18:44:26Z</time>
        <extensions><gpxtpx:TrackPointExtension><gpxtpx:hr>124</gpxtpx:hr></gpxtpx:TrackPointExtension></extensions>
      </trkpt>
      <trkpt lat="59.976305414654" lon="15.786417821668">
        <ele>0</ele>
        <time>2018-06-12T18:44:27Z</time>
        <extensions><gpxtpx:TrackPointExtension><gpxtpx:hr>124</gpxtpx:hr></gpxtpx:TrackPointExtension></extensions>
      </trkpt>
      <trkpt lat="59.976033589637" lon="15.786100650572">
        <ele>0</ele>
        <time>2018-06-12T18:47:31Z</time>
      </trkpt>
      <trkpt lat="59.976597607688" lon="15.785820695112">
        <ele>0</ele>
        <time>2018-06-12T18:48:20Z</time>
      </trkpt>
      <trkpt lat="59.977264387833" lon="15.785960337566">
        <ele>0</ele>
        <time>2018-06-12T18:49:01Z</time>
      </trkpt>
      <trkpt lat="59.977410149074" lon="15.785660181727">
        <ele>0</ele>
        <time>2018-06-12T18:50:11Z</time>
      </trkpt>
      <trkpt lat="59.977779036493" lon="15.785804182769">
        <ele>0</ele>
        <time>2018-06-12T18:51:18Z</time>
      </trkpt>
      <trkpt lat="59.978480098609" lon="15.786304749837">
        <ele>0</ele>
        <time>2018-06-12T18:52:40Z</time>
      </trkpt>
      <trkpt lat="59.977957570963" lon="15.785144862515">
        <ele>0</ele>
        <time>2018-06-12T18:55:56Z</time>
      </trkpt>
      <trkpt lat="59.977730421473" lon="15.784995497057">
        <ele>0</ele>
        <time>2018-06-12T18:57:03Z</time>
      </trkpt>
      <trkpt lat="59.977489777124" lon="15.784064603243">
        <ele>0</ele>
        <time>2018-06-12T18:58:01Z</time>
      </trkpt>
      <trkpt lat="59.97718333486" lon="15.783265053802">
        <ele>0</ele>
        <time>2018-06-12T18:59:04Z</time>
      </trkpt>
      <trkpt lat="59.976823164617" lon="15.782869679579">
        <ele>0</ele>
        <time>2018-06-12T19:00:08Z</time>
      </trkpt>
      <trkpt lat="59.976575730929" lon="15.782217819216">
        <ele>0</ele>
        <time>2018-06-12T19:01:14Z</time>
      </trkpt>
      <trkpt lat="59.976504484779" lon="15.781936606471">
        <ele>0</ele>
        <time>2018-06-12T19:03:43Z</time>
      </trkpt>
      <trkpt lat="59.976189995891" lon="15.78282768626">
        <ele>0</ele>
        <time>2018-06-12T19:04:22Z</time>
      </trkpt>
      <trkpt lat="59.975464290989" lon="15.783348034612">
        <ele>0</ele>
        <time>2018-06-12T19:06:26Z</time>
      </trkpt>
      <trkpt lat="59.97511468194" lon="15.783786910896">
        <ele>0</ele>
        <time>2018-06-12T19:07:46Z</time>
      </trkpt>
      <trkpt lat="59.975428332638" lon="15.784371716059">
        <ele>0</ele>
        <time>2018-06-12T19:11:08Z</time>
      </trkpt>
      <trkpt lat="59.975721196224" lon="15.785091972726">
        <ele>0</ele>
        <time>2018-06-12T19:12:07Z</time>
      </trkpt>
      <trkpt lat="59.975666127141" lon="15.785561359126">
        <ele>0</ele>
        <time>2018-06-12T19:13:29Z</time>
      </trkpt>
      <trkpt lat="59.975671743014" lon="15.785912979831">
        <ele>0</ele>
        <time>2018-06-12T19:13:41Z</time>
        <extensions><gpxtpx:TrackPointExtension><gpxtpx:hr>127</gpxtpx:hr></gpxtpx:TrackPointExtension></extensions>
      </trkpt>
    </trkseg>
  </trk>
</gpx>